Time;durP1;ratioP1;P1;durP2;ratioP2;P2;SDS_P1;SDS_P2;PMS_P1;PMS_P2;Temp;Humidity;BMP_temperature;BMP_pressure;BME280_temperature;BME280_humidity;BME280_pressure;Samples;Min_cycle;Max_cycle;Signal;HPM_P1;HPM_P2
2022/03/20 00:00:24;;;;;;;67.60;30.52;;;11.00;65.10;;;;;;5046474;28;20028;-85
2022/03/20 00:02:49;;;;;;;71.28;33.58;;;10.90;65.10;;;;;;5034761;28;20037;-86
2022/03/20 00:05:15;;;;;;;77.13;34.42;;;10.90;64.90;;;;;;5033680;28;20074;-86
2022/03/20 00:07:41;;;;;;;76.43;33.05;;;10.80;64.90;;;;;;5034985;28;20037;-86
2022/03/20 00:10:08;;;;;;;68.88;33.42;;;10.80;64.90;;;;;;5033566;28;20120;-86
2022/03/20 00:12:34;;;;;;;67.43;32.75;;;10.90;64.60;;;;;;5033319;28;20033;-86
2022/03/20 00:15:00;;;;;;;73.07;33.63;;;10.90;64.70;;;;;;5056393;28;20025;-86
2022/03/20 00:17:26;;;;;;;69.03;33.00;;;10.90;64.50;;;;;;5058896;28;20032;-87
2022/03/20 00:19:52;;;;;;;72.80;32.50;;;10.90;64.40;;;;;;5058973;28;20029;-86
2022/03/20 00:22:18;;;;;;;66.88;33.00;;;10.80;64.80;;;;;;5052125;28;20591;-86
2022/03/20 00:24:44;;;;;;;71.28;33.53;;;10.80;64.70;;;;;;5038942;28;20041;-87
2022/03/20 00:27:14;;;;;;;77.10;35.60;;;10.80;64.50;;;;;;5038581;28;20060;-86
2022/03/20 00:29:40;;;;;;;69.28;33.00;;;10.80;64.80;;;;;;5044062;28;20487;-87
2022/03/20 00:32:08;;;;;;;70.05;32.33;;;10.80;64.70;;;;;;5057076;28;20037;-86
2022/03/20 00:34:34;;;;;;;72.72;32.53;;;10.80;64.90;;;;;;5049137;28;20125;-87
2022/03/20 00:37:00;;;;;;;71.18;34.40;;;10.70;64.90;;;;;;5037319;28;20104;-87
2022/03/20 00:39:26;;;;;;;60.70;30.42;;;10.70;64.90;;;;;;5037252;28;20029;-87
2022/03/20 00:41:51;;;;;;;65.35;29.92;;;10.70;65.20;;;;;;5038341;28;20067;-87
2022/03/20 00:44:17;;;;;;;71.05;30.63;;;10.60;65.40;;;;;;5038887;28;20037;-86
2022/03/20 00:46:43;;;;;;;62.60;29.63;;;10.60;65.30;;;;;;5038589;28;20029;-85
2022/03/20 00:49:09;;;;;;;65.13;31.27;;;10.60;65.40;;;;;;5057962;28;20025;-86
2022/03/20 00:51:36;;;;;;;68.30;33.50;;;10.60;65.50;;;;;;5058022;28;20462;-85
2022/03/20 00:54:02;;;;;;;66.40;31.15;;;10.50;65.50;;;;;;5050786;28;20033;-86
2022/03/20 00:56:27;;;;;;;70.93;31.75;;;10.50;65.80;;;;;;5036712;28;20036;-86
2022/03/20 00:58:53;;;;;;;68.45;32.13;;;10.50;65.50;;;;;;5037833;28;20437;-85
2022/03/20 01:01:19;;;;;;;69.95;30.65;;;10.50;65.40;;;;;;5052669;28;20029;-86
2022/03/20 01:03:45;;;;;;;61.50;30.58;;;10.50;65.40;;;;;;5037752;28;20407;-85
2022/03/20 01:06:11;;;;;;;65.82;31.42;;;10.40;65.40;;;;;;5036387;28;20037;-86
2022/03/20 01:08:38;;;;;;;68.05;31.83;;;10.40;65.20;;;;;;5038073;28;20068;-86
2022/03/20 01:11:06;;;;;;;58.15;28.67;;;10.30;65.20;;;;;;5036383;28;20041;-85
2022/03/20 01:13:31;;;;;;;67.18;30.30;;;10.40;65.30;;;;;;5042958;28;20514;-86
2022/03/20 01:15:57;;;;;;;58.50;30.27;;;10.30;65.20;;;;;;5058296;28;20096;-86
2022/03/20 01:18:24;;;;;;;65.65;29.98;;;10.40;64.80;;;;;;5057902;28;20025;-87
2022/03/20 01:20:50;;;;;;;63.30;30.67;;;10.40;64.80;;;;;;5047931;28;20025;-85
2022/03/20 01:23:16;;;;;;;68.20;31.88;;;10.50;64.50;;;;;;5035969;28;20025;-85
2022/03/20 01:25:42;;;;;;;60.88;29.48;;;10.40;64.30;;;;;;5035790;28;20095;-86
2022/03/20 01:28:08;;;;;;;66.93;29.25;;;10.40;64.10;;;;;;5037672;28;20487;-86
2022/03/20 01:30:33;;;;;;;60.85;30.40;;;10.30;64.30;;;;;;5037162;28;20069;-86
2022/03/20 01:32:59;;;;;;;65.90;29.33;;;10.30;63.90;;;;;;5057175;28;20053;-86
2022/03/20 01:35:25;;;;;;;61.47;27.70;;;10.30;64.20;;;;;;5057587;28;20044;-86
2022/03/20 01:37:51;;;;;;;63.38;28.67;;;10.40;64.00;;;;;;5056000;28;20044;-86
2022/03/20 01:40:16;;;;;;;59.38;28.45;;;10.30;63.90;;;;;;5051709;28;20029;-85
2022/03/20 01:42:43;;;;;;;67.00;30.77;;;10.40;63.40;;;;;;5037314;28;20026;-85
2022/03/20 01:45:27;;;;;;;59.67;28.73;;;10.30;63.70;;;;;;5035911;28;20055;-86
2022/03/20 01:47:54;;;;;;;60.63;29.67;;;10.30;63.40;;;;;;5047356;28;20025;-86
2022/03/20 01:50:22;;;;;;;59.90;27.73;;;10.30;63.70;;;;;;5035911;28;20047;-86
2022/03/20 01:52:50;;;;;;;55.10;27.45;;;10.20;63.20;;;;;;5036740;28;20056;-86
2022/03/20 01:55:21;;;;;;;51.80;25.50;;;10.30;63.30;;;;;;5037035;28;20029;-86
2022/03/20 01:57:47;;;;;;;56.28;26.40;;;10.30;63.00;;;;;;5037313;28;20025;-87
2022/03/20 02:00:16;;;;;;;55.65;27.60;;;10.30;63.10;;;;;;5048793;28;20021;-86
2022/03/20 02:02:42;;;;;;;55.30;26.98;;;10.30;62.80;;;;;;5053221;28;20021;-85
2022/03/20 02:05:11;;;;;;;57.35;27.35;;;10.30;63.00;;;;;;5040967;28;20580;-85
2022/03/20 02:07:39;;;;;;;56.08;27.83;;;10.30;62.60;;;;;;5050032;28;20482;-85
2022/03/20 02:10:07;;;;;;;59.03;27.00;;;10.30;62.40;;;;;;5050538;28;20037;-86
2022/03/20 02:12:34;;;;;;;53.63;26.17;;;10.30;62.40;;;;;;5035119;28;20022;-85
2022/03/20 02:15:01;;;;;;;58.95;28.38;;;10.20;62.20;;;;;;5036674;28;20064;-85
2022/03/20 02:17:29;;;;;;;54.67;25.48;;;10.20;62.50;;;;;;5036662;28;20128;-86
2022/03/20 02:20:03;;;;;;;48.72;25.20;;;10.20;62.70;;;;;;5036802;28;20353;-86
2022/03/20 02:22:29;;;;;;;56.08;27.33;;;10.20;62.10;;;;;;5036614;28;20113;-86
2022/03/20 02:24:56;;;;;;;50.85;24.40;;;10.20;62.20;;;;;;5043688;28;20033;-86
2022/03/20 02:27:27;;;;;;;57.35;25.85;;;10.20;62.30;;;;;;5056485;28;20090;-86
2022/03/20 02:30:00;;;;;;;50.00;25.85;;;10.30;62.10;;;;;;5048195;28;20033;-87
2022/03/20 02:32:31;;;;;;;53.25;25.50;;;10.40;61.70;;;;;;5035129;28;20057;-86
2022/03/20 02:35:05;;;;;;;49.83;24.10;;;10.40;61.70;;;;;;5036164;28;20025;-86
2022/03/20 02:37:31;;;;;;;52.47;25.20;;;10.40;61.30;;;;;;5034854;28;20480;-86
2022/03/20 02:40:00;;;;;;;44.72;24.17;;;10.50;61.60;;;;;;5036098;28;20029;-86
2022/03/20 02:42:26;;;;;;;55.00;25.65;;;10.50;61.00;;;;;;5035177;28;20053;-86
2022/03/20 02:45:08;;;;;;;55.78;24.00;;;10.50;61.00;;;;;;5036218;28;20055;-86
2022/03/20 02:47:42;;;;;;;49.45;24.38;;;10.50;59.60;;;;;;5043320;28;20031;-87
2022/03/20 02:50:08;;;;;;;52.70;22.88;;;10.40;60.10;;;;;;5052201;28;20034;-87
2022/03/20 02:52:39;;;;;;;44.13;21.08;;;10.40;60.30;;;;;;5034450;28;20049;-86
2022/03/20 02:55:05;;;;;;;53.97;23.90;;;10.40;59.20;;;;;;5035734;28;20032;-86
2022/03/20 02:57:32;;;;;;;52.70;23.00;;;10.30;60.00;;;;;;5036034;28;20025;-86
2022/03/20 03:00:00;;;;;;;43.35;21.70;;;10.50;59.60;;;;;;5044297;28;20444;-86
2022/03/20 03:02:30;;;;;;;49.10;24.67;;;10.50;59.20;;;;;;5056022;28;20032;-86
2022/03/20 03:04:57;;;;;;;45.93;22.97;;;10.50;59.30;;;;;;5055798;28;20033;-87
2022/03/20 03:07:23;;;;;;;45.70;21.10;;;10.50;59.10;;;;;;5047229;28;20365;-86
2022/03/20 03:12:32;;;;;;;47.60;23.02;;;10.40;58.60;;;;;;5035726;28;20507;-86
2022/03/20 03:17:42;;;;;;;41.67;21.90;;;10.40;58.90;;;;;;5035861;28;20036;-86
2022/03/20 03:20:08;;;;;;;50.70;22.42;;;10.50;58.70;;;;;;5035569;28;20029;-86
2022/03/20 03:22:34;;;;;;;42.90;23.25;;;10.50;58.50;;;;;;5034170;28;20033;-86
2022/03/20 03:24:59;;;;;;;43.47;21.42;;;10.50;58.20;;;;;;5035021;28;20029;-87
2022/03/20 03:27:25;;;;;;;42.30;21.23;;;10.40;57.70;;;;;;5045511;28;20032;-84
2022/03/20 03:29:51;;;;;;;47.30;21.58;;;10.30;58.10;;;;;;5055108;28;20086;-89
2022/03/20 03:32:17;;;;;;;46.10;21.67;;;10.30;58.10;;;;;;5056209;28;20041;-89
2022/03/20 03:37:27;;;;;;;44.38;21.65;;;10.20;57.60;;;;;;5039941;28;20036;-89
2022/03/20 03:39:53;;;;;;;44.33;22.00;;;10.20;57.80;;;;;;5034683;28;20553;-87
2022/03/20 03:42:19;;;;;;;40.60;19.58;;;10.20;57.70;;;;;;5039757;28;20021;-87
2022/03/20 03:44:48;;;;;;;44.95;22.13;;;10.20;57.70;;;;;;5054408;28;20395;-88
2022/03/20 03:47:14;;;;;;;39.88;20.15;;;10.20;57.70;;;;;;5055715;28;20036;-86
2022/03/20 03:49:40;;;;;;;40.50;20.90;;;10.30;57.90;;;;;;5053338;28;20029;-86
2022/03/20 03:52:06;;;;;;;48.50;20.75;;;10.20;57.30;;;;;;5034305;28;20045;-87
2022/03/20 03:54:31;;;;;;;34.88;18.50;;;10.20;57.20;;;;;;5035853;28;20033;-88
2022/03/20 03:56:58;;;;;;;41.35;20.17;;;10.20;57.40;;;;;;5034574;28;20021;-87
2022/03/20 03:59:24;;;;;;;36.65;18.65;;;10.20;57.30;;;;;;5039726;28;20021;-89
2022/03/20 04:01:50;;;;;;;39.72;18.20;;;10.10;57.50;;;;;;5054611;28;20403;-87
2022/03/20 04:04:15;;;;;;;40.78;18.15;;;10.20;57.00;;;;;;5054528;28;20025;-88
2022/03/20 04:06:42;;;;;;;32.42;16.60;;;10.20;56.90;;;;;;5043797;28;20086;-88
2022/03/20 04:09:08;;;;;;;34.42;17.40;;;10.00;56.50;;;;;;5035974;28;20476;-88
2022/03/20 04:11:34;;;;;;;36.90;17.92;;;10.10;56.80;;;;;;5034314;28;20052;-87
2022/03/20 04:13:59;;;;;;;36.20;16.92;;;10.10;56.50;;;;;;5036002;28;20118;-87
2022/03/20 04:16:25;;;;;;;34.88;17.58;;;10.10;56.50;;;;;;5035432;28;20032;-87
2022/03/20 04:18:50;;;;;;;30.58;16.38;;;10.00;56.00;;;;;;5035631;28;20048;-87
2022/03/20 04:21:17;;;;;;;33.53;16.25;;;10.00;56.20;;;;;;5034515;28;20128;-90
2022/03/20 04:23:45;;;;;;;34.47;17.33;;;10.00;55.90;;;;;;5035875;28;20026;-87
2022/03/20 04:26:17;;;;;;;37.40;17.20;;;10.00;55.60;;;;;;5050828;28;20029;-87
2022/03/20 04:28:47;;;;;;;32.28;15.85;;;9.90;55.70;;;;;;5036132;28;20022;-87
2022/03/20 04:31:17;;;;;;;31.98;16.15;;;9.90;55.90;;;;;;5034729;28;20060;-88
2022/03/20 04:33:45;;;;;;;32.20;14.80;;;9.90;55.50;;;;;;5035847;28;20029;-87
2022/03/20 04:36:11;;;;;;;28.52;16.08;;;9.90;55.30;;;;;;5035975;28;20056;-88
2022/03/20 04:38:37;;;;;;;31.92;15.82;;;9.80;55.20;;;;;;5050814;28;20467;-88
2022/03/20 04:41:04;;;;;;;30.08;14.02;;;9.80;55.70;;;;;;5055058;28;20109;-88
2022/03/20 04:43:30;;;;;;;30.58;15.52;;;9.90;55.90;;;;;;5055759;28;20501;-87
2022/03/20 04:45:56;;;;;;;35.70;16.10;;;9.80;55.40;;;;;;5055638;28;20029;-87
2022/03/20 04:59:18;;;;;;;27.58;14.40;;;9.50;56.00;;;;;;5041345;28;20024;-87
2022/03/20 05:01:43;;;;;;;29.85;15.13;;;9.50;56.20;;;;;;5058758;28;20033;-88
2022/03/20 05:04:09;;;;;;;30.95;14.75;;;9.50;55.90;;;;;;5058220;28;20028;-88
2022/03/20 05:06:36;;;;;;;32.20;15.07;;;9.50;55.60;;;;;;5058942;28;20771;-88
2022/03/20 05:14:30;;;;;;;27.65;13.55;;;9.30;56.30;;;;;;5038788;28;20415;-88
2022/03/20 05:16:56;;;;;;;28.13;15.35;;;9.30;56.00;;;;;;5038663;28;20022;-87
2022/03/20 05:19:21;;;;;;;28.83;15.15;;;9.30;55.90;;;;;;5038607;28;20029;-86
2022/03/20 05:21:47;;;;;;;28.83;14.05;;;9.20;56.40;;;;;;5038634;28;20419;-86
2022/03/20 05:24:13;;;;;;;27.17;14.43;;;9.20;56.00;;;;;;5038418;28;20449;-88
2022/03/20 05:26:40;;;;;;;28.40;13.93;;;9.20;56.20;;;;;;5037203;28;20029;-89
2022/03/20 05:29:05;;;;;;;25.65;13.55;;;9.20;56.10;;;;;;5038193;28;20084;-89
2022/03/20 05:31:32;;;;;;;28.42;15.27;;;9.20;56.30;;;;;;5038022;28;20129;-87
2022/03/20 05:33:58;;;;;;;26.58;13.05;;;9.20;56.30;;;;;;5038187;28;20104;-88
2022/03/20 05:36:28;;;;;;;32.58;15.00;;;9.20;56.30;;;;;;5038229;28;20014;-88
2022/03/20 05:38:55;;;;;;;26.95;13.32;;;9.10;56.30;;;;;;5053336;28;20036;-86
2022/03/20 05:44:05;;;;;;;26.65;14.43;;;9.10;56.40;;;;;;5038116;28;20099;-86
2022/03/20 05:46:30;;;;;;;25.65;14.15;;;9.10;56.70;;;;;;5037404;28;20029;-87
2022/03/20 05:48:56;;;;;;;30.50;14.07;;;9.10;56.90;;;;;;5036539;28;20040;-88
2022/03/20 05:51:21;;;;;;;28.33;14.57;;;9.20;57.00;;;;;;5037695;28;20045;-87
2022/03/20 05:53:47;;;;;;;33.30;14.85;;;9.10;56.60;;;;;;5037326;28;20036;-88
2022/03/20 05:58:59;;;;;;;26.77;14.70;;;9.00;57.00;;;;;;5038071;28;20087;-88
2022/03/20 06:01:26;;;;;;;30.85;15.82;;;9.00;57.50;;;;;;5037560;28;20554;-89
2022/03/20 06:03:52;;;;;;;27.65;12.82;;;9.00;57.30;;;;;;5042800;28;20032;-88
2022/03/20 06:06:18;;;;;;;26.45;13.25;;;9.00;57.10;;;;;;5054223;28;20021;-88
2022/03/20 06:08:44;;;;;;;30.88;15.00;;;8.90;57.10;;;;;;5038584;28;20029;-88
2022/03/20 06:11:09;;;;;;;27.23;13.25;;;9.00;57.50;;;;;;5040990;28;20016;-88
2022/03/20 06:13:37;;;;;;;26.48;13.52;;;8.90;57.20;;;;;;5057047;28;20074;-88
2022/03/20 06:16:05;;;;;;;23.20;12.10;;;8.90;57.30;;;;;;5057310;28;20017;-87
2022/03/20 06:18:31;;;;;;;26.33;12.88;;;9.00;56.80;;;;;;5051550;28;20026;-89
2022/03/20 06:20:57;;;;;;;27.40;13.20;;;8.90;56.90;;;;;;5046621;28;20067;-86
2022/03/20 06:23:23;;;;;;;20.63;11.85;;;9.00;57.10;;;;;;5044410;28;20049;-88
2022/03/20 06:25:51;;;;;;;21.92;12.43;;;9.00;56.80;;;;;;5056974;28;20407;-87
2022/03/20 06:28:17;;;;;;;28.33;13.05;;;8.90;56.50;;;;;;5056836;28;20077;-89
2022/03/20 06:30:43;;;;;;;25.20;12.95;;;8.90;56.70;;;;;;5049968;28;20077;-90
2022/03/20 06:33:09;;;;;;;25.48;13.15;;;8.90;56.40;;;;;;5035428;28;20026;-88
2022/03/20 06:35:35;;;;;;;25.40;12.48;;;8.80;56.90;;;;;;5064907;28;20025;-89
2022/03/20 06:38:01;;;;;;;19.27;10.55;;;8.90;57.10;;;;;;5046488;28;20040;-87
2022/03/20 06:40:27;;;;;;;25.25;12.18;;;9.00;56.50;;;;;;5036790;28;20057;-88
2022/03/20 06:42:52;;;;;;;23.45;12.88;;;9.00;56.60;;;;;;5036734;28;20021;-88
2022/03/20 06:45:20;;;;;;;25.58;11.85;;;9.10;56.40;;;;;;5035319;28;20377;-88
2022/03/20 06:47:46;;;;;;;20.45;10.15;;;8.90;56.40;;;;;;5045527;28;20121;-89
2022/03/20 06:50:13;;;;;;;23.55;11.90;;;8.90;56.10;;;;;;5056210;28;20549;-88
2022/03/20 06:52:40;;;;;;;25.38;11.02;;;9.00;56.30;;;;;;5055040;28;20045;-88
2022/03/20 06:55:07;;;;;;;19.98;11.13;;;9.00;56.30;;;;;;5050516;28;20051;-87
2022/03/20 06:57:33;;;;;;;22.98;11.38;;;9.00;56.00;;;;;;5040108;28;20026;-89
2022/03/20 07:00:02;;;;;;;19.80;10.48;;;9.10;56.00;;;;;;5044590;28;20625;-89
2022/03/20 07:02:27;;;;;;;19.77;11.02;;;9.30;55.40;;;;;;5047406;28;20399;-88
2022/03/20 07:04:53;;;;;;;19.13;9.45;;;9.40;54.90;;;;;;5047667;28;20040;-88
2022/03/20 07:07:20;;;;;;;21.75;11.73;;;9.50;54.30;;;;;;5044253;28;20109;-89
2022/03/20 07:09:46;;;;;;;19.02;10.43;;;9.90;53.90;;;;;;5044881;28;20025;-88
2022/03/20 07:12:12;;;;;;;21.17;11.07;;;10.30;51.90;;;;;;5042566;28;20676;-88
2022/03/20 07:14:39;;;;;;;20.73;10.25;;;10.70;51.00;;;;;;5050237;28;20559;-87
2022/03/20 07:17:11;;;;;;;21.75;11.25;;;10.90;50.00;;;;;;5050334;28;20048;-88
2022/03/20 07:19:38;;;;;;;19.35;10.18;;;11.10;49.20;;;;;;5051598;28;20029;-88
2022/03/20 07:22:05;;;;;;;22.90;10.88;;;11.40;48.20;;;;;;5041201;28;20289;-87
2022/03/20 07:24:35;;;;;;;22.10;11.35;;;11.80;47.70;;;;;;5046127;28;20021;-89
2022/03/20 07:57:07;;;;;;;18.27;8.48;;;13.20;42.60;;;;;;5070994;27;20397;-82
2022/03/20 07:59:34;;;;;;;15.60;8.65;;;13.20;42.00;;;;;;5058487;28;20042;-79
2022/03/20 08:02:00;;;;;;;15.15;9.23;;;13.80;40.50;;;;;;5072140;28;20104;-78
2022/03/20 08:04:25;;;;;;;17.08;10.07;;;14.00;39.80;;;;;;5060699;28;20055;-78
2022/03/20 08:06:51;;;;;;;15.35;9.20;;;14.10;39.40;;;;;;5052310;28;20483;-74
2022/03/20 08:14:08;;;;;;;13.80;8.70;;;13.90;38.60;;;;;;5108621;27;20388;-79
2022/03/20 08:16:38;;;;;;;18.17;10.18;;;14.20;39.20;;;;;;5112149;28;20031;-79
2022/03/20 08:19:05;;;;;;;;;;;14.50;39.40;;;;;;5108573;28;20027;-83
2022/03/20 08:21:33;;;;;;;14.65;8.75;;;14.90;37.50;;;;;;5111572;28;19907;-79
2022/03/20 08:24:02;;;;;;;18.10;11.80;;;15.20;36.90;;;;;;5110676;28;20103;-79
2022/03/20 08:26:31;;;;;;;15.15;10.40;;;15.30;37.00;;;;;;5107252;28;20023;-85
2022/03/20 08:28:58;;;;;;;13.52;8.45;;;15.90;37.20;;;;;;5098615;28;20027;-81
2022/03/20 08:31:24;;;;;;;15.85;9.43;;;16.20;35.20;;;;;;5114675;28;20015;-82
2022/03/20 08:33:50;;;;;;;15.48;9.20;;;16.20;36.40;;;;;;5094933;28;20405;-85
2022/03/20 08:36:15;;;;;;;12.55;9.15;;;15.80;36.30;;;;;;5108821;28;20032;-80
2022/03/20 08:38:41;;;;;;;12.77;9.10;;;16.40;36.70;;;;;;5109546;28;20034;-78
2022/03/20 08:41:07;;;;;;;17.65;10.02;;;16.30;35.30;;;;;;5093274;28;20089;-79
2022/03/20 08:43:33;;;;;;;12.48;8.80;;;16.60;35.10;;;;;;5111641;28;20026;-76
2022/03/20 08:45:59;;;;;;;15.35;9.35;;;16.60;34.80;;;;;;5091818;28;20099;-78
2022/03/20 08:48:24;;;;;;;14.10;9.40;;;16.90;34.30;;;;;;5110755;28;20024;-78
2022/03/20 08:50:50;;;;;;;15.15;9.20;;;17.40;34.20;;;;;;5107305;28;20478;-78
2022/03/20 08:53:18;;;;;;;13.50;9.70;;;17.60;33.20;;;;;;5109167;28;20134;-78
2022/03/20 08:55:44;;;;;;;13.13;9.93;;;17.70;33.30;;;;;;5110291;28;20020;-78
2022/03/20 08:58:11;;;;;;;10.98;8.57;;;17.90;32.70;;;;;;5107260;28;20015;-76
2022/03/20 09:00:37;;;;;;;13.43;8.85;;;17.90;32.80;;;;;;5108589;28;20032;-78
2022/03/20 09:03:03;;;;;;;12.68;9.77;;;17.80;32.90;;;;;;5110245;28;20019;-78
2022/03/20 09:05:28;;;;;;;12.50;9.05;;;18.00;32.90;;;;;;5117376;28;20454;-78
2022/03/20 09:07:57;;;;;;;13.07;8.98;;;17.90;33.00;;;;;;5091289;28;20034;-78
2022/03/20 09:10:23;;;;;;;15.25;9.63;;;17.50;33.20;;;;;;5116993;28;20031;-78
2022/03/20 09:12:49;;;;;;;13.15;9.48;;;17.80;33.30;;;;;;5111518;28;20210;-78
2022/03/20 09:15:17;;;;;;;11.43;8.65;;;17.60;33.70;;;;;;5097722;28;20526;-78
2022/03/20 09:20:29;;;;;;;14.65;9.32;;;18.10;32.70;;;;;;5106552;28;20523;-78
2022/03/20 09:22:55;;;;;;;14.40;9.55;;;18.20;33.10;;;;;;5099616;28;20040;-77
2022/03/20 09:25:21;;;;;;;13.30;9.02;;;17.80;33.60;;;;;;5058940;28;20504;-78
2022/03/20 09:27:51;;;;;;;13.48;8.85;;;18.30;33.40;;;;;;5094699;28;20482;-76
2022/03/20 09:30:18;;;;;;;12.85;9.60;;;18.40;32.30;;;;;;5095963;28;20032;-80
2022/03/20 09:32:45;;;;;;;15.93;9.48;;;18.40;32.70;;;;;;5088204;28;20111;-76
2022/03/20 09:35:11;;;;;;;13.85;9.20;;;18.30;33.60;;;;;;5097273;28;20028;-80
2022/03/20 09:37:37;;;;;;;13.90;9.63;;;18.30;33.90;;;;;;5069636;28;20024;-80
2022/03/20 09:40:04;;;;;;;12.38;8.85;;;18.60;33.20;;;;;;5093921;28;20214;-78
2022/03/20 09:42:30;;;;;;;16.02;9.90;;;19.10;33.70;;;;;;5096512;28;20593;-78
2022/03/20 09:44:56;;;;;;;15.82;9.82;;;19.10;32.30;;;;;;5096080;28;20058;-79
2022/03/20 09:47:23;;;;;;;12.88;9.23;;;19.30;32.50;;;;;;5094964;28;20020;-78
2022/03/20 09:49:50;;;;;;;13.70;9.75;;;19.20;32.80;;;;;;5090414;28;20024;-78
2022/03/20 09:52:19;;;;;;;14.25;10.13;;;18.90;33.00;;;;;;5093838;28;20379;-78
2022/03/20 09:54:45;;;;;;;12.65;9.13;;;18.70;32.60;;;;;;5095713;28;20034;-79
2022/03/20 09:57:11;;;;;;;14.55;9.25;;;18.80;33.30;;;;;;5076880;28;20060;-79
2022/03/20 09:59:39;;;;;;;12.80;9.65;;;18.90;33.80;;;;;;5093282;28;20024;-78
2022/03/20 10:02:10;;;;;;;13.93;9.35;;;18.90;33.10;;;;;;5080153;28;20024;-78
2022/03/20 10:04:53;;;;;;;17.17;10.60;;;18.80;33.60;;;;;;5084268;28;20040;-78
2022/03/20 10:07:23;;;;;;;15.55;10.55;;;19.20;33.70;;;;;;5076380;28;20038;-76
2022/03/20 10:10:09;;;;;;;17.23;11.02;;;19.10;33.70;;;;;;5094997;28;20485;-77
2022/03/20 10:12:36;;;;;;;15.77;10.73;;;19.00;34.10;;;;;;5091923;28;20043;-77
2022/03/20 10:15:05;;;;;;;16.70;10.70;;;18.90;34.00;;;;;;5094827;28;20070;-77
2022/03/20 10:17:31;;;;;;;14.23;10.70;;;18.60;34.20;;;;;;5093569;28;20539;-77
2022/03/20 10:20:20;;;;;;;16.58;11.45;;;17.80;35.00;;;;;;5090421;28;20370;-77
2022/03/20 10:22:46;;;;;;;17.40;11.02;;;18.00;35.60;;;;;;5091919;28;20397;-77
2022/03/20 10:25:16;;;;;;;18.75;11.43;;;17.70;35.90;;;;;;5096133;28;20114;-81
2022/03/20 10:27:57;;;;;;;16.88;10.43;;;17.50;36.60;;;;;;5083961;28;20394;-77
2022/03/20 10:30:22;;;;;;;15.75;10.13;;;17.10;37.10;;;;;;5086965;28;20038;-78
2022/03/20 10:32:49;;;;;;;18.73;11.20;;;16.80;37.60;;;;;;5094413;28;20031;-77
2022/03/20 10:35:17;;;;;;;16.20;10.93;;;16.20;39.50;;;;;;5095215;28;20024;-79
2022/03/20 10:37:54;;;;;;;18.70;11.77;;;16.10;40.20;;;;;;5083961;28;20054;-77
2022/03/20 10:40:21;;;;;;;17.08;10.60;;;16.30;39.90;;;;;;5076047;28;20032;-75
2022/03/20 10:43:09;;;;;;;16.20;10.27;;;16.40;40.80;;;;;;5082689;28;20505;-75
2022/03/20 10:45:54;;;;;;;19.67;11.80;;;16.40;40.00;;;;;;5074741;28;20114;-75
2022/03/20 10:48:44;;;;;;;19.83;11.50;;;16.10;39.90;;;;;;5082070;28;20028;-75
2022/03/20 10:51:10;;;;;;;20.02;11.80;;;16.00;40.40;;;;;;5084239;28;20053;-75
2022/03/20 10:53:51;;;;;;;24.00;12.43;;;16.10;40.30;;;;;;5085089;28;20203;-74
2022/03/20 10:56:16;;;;;;;21.02;12.38;;;16.30;41.00;;;;;;5093192;28;20032;-74
2022/03/20 10:58:42;;;;;;;21.35;12.00;;;16.00;41.40;;;;;;5072432;28;20023;-74
2022/03/20 11:01:09;;;;;;;19.60;11.90;;;16.10;41.00;;;;;;5072664;28;20036;-75
2022/03/20 11:03:39;;;;;;;20.75;12.13;;;16.30;41.40;;;;;;5074490;28;20521;-75
2022/03/20 11:06:08;;;;;;;25.20;12.27;;;16.20;41.00;;;;;;5072955;28;20086;-74
2022/03/20 11:08:36;;;;;;;21.77;12.07;;;16.10;40.90;;;;;;5074188;28;20086;-75
2022/03/20 11:11:03;;;;;;;24.30;12.68;;;16.20;41.80;;;;;;5070033;28;20059;-74
2022/03/20 11:13:32;;;;;;;26.90;15.00;;;16.10;41.10;;;;;;5057565;28;20048;-75
2022/03/20 11:15:59;;;;;;;23.00;13.88;;;16.10;41.20;;;;;;5092717;28;20109;-75
2022/03/20 11:18:27;;;;;;;22.67;13.18;;;16.00;41.30;;;;;;5072924;28;20025;-74
2022/03/20 11:20:53;;;;;;;24.45;13.80;;;15.80;41.90;;;;;;5075219;28;20560;-73
2022/03/20 11:23:24;;;;;;;29.90;15.25;;;16.00;42.50;;;;;;5075004;28;20722;-74
2022/03/20 11:25:52;;;;;;;27.38;13.30;;;16.20;41.90;;;;;;5074970;28;20028;-74
2022/03/20 11:28:21;;;;;;;23.50;13.80;;;16.20;41.80;;;;;;5075031;28;20029;-74
2022/03/20 11:30:47;;;;;;;27.92;15.27;;;16.30;41.20;;;;;;5074883;28;20083;-74
2022/03/20 11:33:14;;;;;;;24.27;13.88;;;16.30;41.20;;;;;;5075708;28;20028;-75
2022/03/20 11:35:40;;;;;;;26.73;14.75;;;16.40;42.00;;;;;;5093552;28;20484;-76
2022/03/20 11:38:19;;;;;;;24.42;13.73;;;16.40;41.50;;;;;;5094571;28;20074;-77
2022/03/20 11:41:08;;;;;;;24.77;13.75;;;16.30;42.20;;;;;;5083117;28;20016;-76
2022/03/20 11:43:36;;;;;;;28.15;14.98;;;16.40;43.00;;;;;;5078888;28;20039;-75
2022/03/20 11:46:27;;;;;;;26.25;13.85;;;16.30;42.60;;;;;;5084796;28;20389;-75
2022/03/20 11:49:17;;;;;;;30.80;15.50;;;16.30;41.60;;;;;;5078288;28;20530;-73
2022/03/20 11:52:09;;;;;;;33.20;16.23;;;16.20;42.80;;;;;;5070396;28;20028;-74
2022/03/20 11:54:40;;;;;;;28.50;15.30;;;16.20;42.70;;;;;;5095643;28;20032;-75
2022/03/20 11:57:26;;;;;;;32.42;16.92;;;16.20;42.60;;;;;;5094535;28;20027;-74
2022/03/20 11:59:56;;;;;;;31.42;16.02;;;16.30;42.50;;;;;;5082585;28;20024;-75
2022/03/20 12:02:34;;;;;;;26.60;15.07;;;16.50;42.90;;;;;;5095515;28;20099;-76
2022/03/20 12:05:22;;;;;;;32.25;16.52;;;16.60;42.30;;;;;;5095378;28;20031;-75
2022/03/20 12:08:21;;;;;;;30.23;16.58;;;16.50;42.50;;;;;;5072934;28;20056;-74
2022/03/20 12:11:06;;;;;;;35.78;17.75;;;16.30;42.50;;;;;;5078332;28;20466;-75
2022/03/20 12:13:50;;;;;;;32.42;17.83;;;16.50;43.40;;;;;;5075312;28;20040;-75
2022/03/20 12:16:43;;;;;;;31.75;16.38;;;16.30;42.80;;;;;;5095203;28;20028;-75
2022/03/20 12:19:11;;;;;;;38.00;18.73;;;16.40;44.00;;;;;;5077043;28;20028;-75
2022/03/20 12:21:55;;;;;;;40.13;18.15;;;16.30;42.00;;;;;;5077320;28;20020;-77
2022/03/20 12:24:35;;;;;;;33.85;17.17;;;16.40;41.80;;;;;;5075259;28;20092;-76
2022/03/20 12:27:24;;;;;;;29.00;16.02;;;16.30;42.00;;;;;;5083672;28;20603;-78
2022/03/20 12:30:02;;;;;;;33.67;18.30;;;16.40;43.40;;;;;;5077816;28;20095;-75
2022/03/20 12:32:47;;;;;;;31.75;17.38;;;16.60;43.20;;;;;;5091938;28;20024;-78
2022/03/20 12:35:18;;;;;;;30.67;17.30;;;16.50;43.10;;;;;;5090830;28;20046;-76
2022/03/20 12:37:44;;;;;;;35.67;18.35;;;16.40;42.90;;;;;;5085605;28;20028;-76
2022/03/20 12:40:19;;;;;;;33.03;17.95;;;16.50;43.20;;;;;;5091259;28;20024;-75
2022/03/20 12:43:09;;;;;;;34.40;18.20;;;16.50;43.00;;;;;;5084535;28;20722;-76
2022/03/20 12:45:36;;;;;;;32.35;17.58;;;16.30;42.60;;;;;;5091445;28;20043;-76
2022/03/20 12:48:04;;;;;;;36.38;18.15;;;16.30;43.80;;;;;;5090287;28;20081;-76
2022/03/20 12:50:35;;;;;;;39.38;18.95;;;16.30;43.60;;;;;;5088860;28;20567;-77
2022/03/20 12:53:04;;;;;;;36.95;17.58;;;16.50;43.90;;;;;;5089714;28;20027;-77
2022/03/20 12:55:30;;;;;;;36.75;18.50;;;16.50;44.10;;;;;;5092721;28;20012;-77
2022/03/20 12:57:56;;;;;;;32.95;19.23;;;16.70;43.90;;;;;;5089881;28;20107;-77
2022/03/20 13:00:25;;;;;;;32.85;19.73;;;16.70;42.90;;;;;;5092943;28;20019;-76
2022/03/20 13:03:07;;;;;;;34.00;19.17;;;16.70;42.70;;;;;;5093392;28;20898;-76
2022/03/20 13:05:38;;;;;;;35.08;18.33;;;16.90;43.70;;;;;;5097003;28;20425;-76
2022/03/20 13:08:08;;;;;;;38.83;19.75;;;16.80;43.00;;;;;;5075401;28;20040;-78
2022/03/20 13:10:36;;;;;;;37.70;20.17;;;17.00;43.00;;;;;;5092099;28;20059;-77
2022/03/20 13:13:03;;;;;;;35.83;19.40;;;17.00;42.70;;;;;;5096947;28;20083;-77
2022/03/20 13:15:31;;;;;;;36.80;20.30;;;17.20;43.30;;;;;;5079114;28;20398;-78
2022/03/20 13:17:58;;;;;;;40.88;21.05;;;17.30;42.00;;;;;;5097656;28;20027;-78
2022/03/20 13:20:30;;;;;;;40.97;19.83;;;16.80;42.40;;;;;;5067610;28;20020;-77
2022/03/20 13:22:57;;;;;;;39.95;19.90;;;16.90;43.20;;;;;;5097443;28;20042;-77
2022/03/20 13:25:25;;;;;;;42.00;20.65;;;16.80;42.60;;;;;;5080456;28;20076;-78
2022/03/20 13:27:53;;;;;;;38.72;20.00;;;16.90;43.30;;;;;;5097373;28;20027;-78
2022/03/20 13:30:31;;;;;;;37.80;18.27;;;16.90;42.10;;;;;;5097008;28;20434;-78
2022/03/20 13:32:57;;;;;;;35.83;19.45;;;16.90;43.40;;;;;;5095696;28;20225;-78
2022/03/20 13:35:24;;;;;;;42.85;21.52;;;17.00;42.90;;;;;;5094142;28;20020;-78
2022/03/20 13:38:08;;;;;;;39.40;19.77;;;16.90;42.50;;;;;;5095791;28;20058;-78
2022/03/20 13:40:34;;;;;;;41.42;21.13;;;16.60;42.10;;;;;;5093014;28;20455;-78
2022/03/20 13:43:00;;;;;;;43.47;22.10;;;16.60;42.40;;;;;;5097697;28;20105;-78
2022/03/20 13:45:44;;;;;;;38.80;20.20;;;16.70;42.50;;;;;;5097346;28;20024;-78